sensor_id;sensor_type;location;lat;lon;timestamp;P1;durP1;ratioP1;P2;durP2;ratioP2
4232;SDS011;2130;48.472;11.934;2024-02-16T00:00:29;9.47;;;2.30;;
4232;SDS011;2130;48.472;11.934;2024-02-16T00:02:58;10.27;;;2.87;;
4232;SDS011;2130;48.472;11.934;2024-02-16T00:05:28;9.43;;;2.93;;
4232;SDS011;2130;48.472;11.934;2024-02-16T00:07:59;8.83;;;2.87;;
4232;SDS011;2130;48.472;11.934;2024-02-16T00:10:30;7.70;;;2.57;;
4232;SDS011;2130;48.472;11.934;2024-02-16T00:13:00;8.47;;;2.30;;
4232;SDS011;2130;48.472;11.934;2024-02-16T00:15:30;7.60;;;2.70;;
4232;SDS011;2130;48.472;11.934;2024-02-16T00:17:59;7.10;;;1.97;;
4232;SDS011;2130;48.472;11.934;2024-02-16T00:20:30;6.90;;;1.93;;
4232;SDS011;2130;48.472;11.934;2024-02-16T00:23:00;7.27;;;2.20;;
4232;SDS011;2130;48.472;11.934;2024-02-16T00:25:30;8.63;;;2.70;;
4232;SDS011;2130;48.472;11.934;2024-02-16T00:27:59;7.40;;;2.10;;
4232;SDS011;2130;48.472;11.934;2024-02-16T00:30:28;8.13;;;2.27;;
4232;SDS011;2130;48.472;11.934;2024-02-16T00:32:57;8.63;;;2.37;;
4232;SDS011;2130;48.472;11.934;2024-02-16T00:35:30;11.60;;;2.60;;
4232;SDS011;2130;48.472;11.934;2024-02-16T00:39:17;8.77;;;2.47;;
4232;SDS011;2130;48.472;11.934;2024-02-16T00:41:47;9.10;;;2.90;;
4232;SDS011;2130;48.472;11.934;2024-02-16T00:44:16;10.87;;;3.13;;
4232;SDS011;2130;48.472;11.934;2024-02-16T00:46:46;8.13;;;2.67;;
4232;SDS011;2130;48.472;11.934;2024-02-16T00:49:16;9.63;;;3.03;;
4232;SDS011;2130;48.472;11.934;2024-02-16T00:51:46;10.00;;;2.70;;
4232;SDS011;2130;48.472;11.934;2024-02-16T00:54:14;9.60;;;2.73;;
4232;SDS011;2130;48.472;11.934;2024-02-16T00:56:45;9.07;;;2.87;;
4232;SDS011;2130;48.472;11.934;2024-02-16T00:59:15;7.63;;;2.73;;
4232;SDS011;2130;48.472;11.934;2024-02-16T01:01:45;8.17;;;2.80;;
4232;SDS011;2130;48.472;11.934;2024-02-16T01:04:15;7.90;;;2.23;;
4232;SDS011;2130;48.472;11.934;2024-02-16T01:06:47;7.97;;;2.60;;
4232;SDS011;2130;48.472;11.934;2024-02-16T01:09:17;8.10;;;2.50;;
4232;SDS011;2130;48.472;11.934;2024-02-16T01:11:48;8.73;;;2.80;;
4232;SDS011;2130;48.472;11.934;2024-02-16T01:14:18;8.77;;;2.47;;
4232;SDS011;2130;48.472;11.934;2024-02-16T01:16:47;8.20;;;2.40;;
4232;SDS011;2130;48.472;11.934;2024-02-16T01:19:16;9.20;;;2.77;;
4232;SDS011;2130;48.472;11.934;2024-02-16T01:21:46;8.03;;;2.20;;
4232;SDS011;2130;48.472;11.934;2024-02-16T01:24:19;10.50;;;2.40;;
4232;SDS011;2130;48.472;11.934;2024-02-16T01:26:53;8.90;;;2.50;;
4232;SDS011;2130;48.472;11.934;2024-02-16T01:29:23;8.90;;;2.77;;
4232;SDS011;2130;48.472;11.934;2024-02-16T01:31:53;8.50;;;2.57;;
4232;SDS011;2130;48.472;11.934;2024-02-16T01:34:23;8.43;;;2.63;;
4232;SDS011;2130;48.472;11.934;2024-02-16T01:36:52;8.93;;;3.07;;
4232;SDS011;2130;48.472;11.934;2024-02-16T01:39:21;10.10;;;3.20;;
4232;SDS011;2130;48.472;11.934;2024-02-16T01:41:50;9.50;;;2.50;;
4232;SDS011;2130;48.472;11.934;2024-02-16T01:44:22;8.47;;;2.53;;
4232;SDS011;2130;48.472;11.934;2024-02-16T01:46:52;9.60;;;2.73;;
4232;SDS011;2130;48.472;11.934;2024-02-16T01:49:22;10.23;;;2.70;;
4232;SDS011;2130;48.472;11.934;2024-02-16T01:51:52;11.10;;;3.20;;
4232;SDS011;2130;48.472;11.934;2024-02-16T01:54:22;9.37;;;2.97;;
4232;SDS011;2130;48.472;11.934;2024-02-16T01:56:52;8.87;;;2.70;;
4232;SDS011;2130;48.472;11.934;2024-02-16T01:59:24;12.43;;;3.23;;
4232;SDS011;2130;48.472;11.934;2024-02-16T02:01:54;10.00;;;2.83;;
4232;SDS011;2130;48.472;11.934;2024-02-16T02:04:23;10.10;;;2.60;;
4232;SDS011;2130;48.472;11.934;2024-02-16T02:06:53;14.50;;;3.07;;
4232;SDS011;2130;48.472;11.934;2024-02-16T02:09:24;10.70;;;2.90;;
4232;SDS011;2130;48.472;11.934;2024-02-16T02:11:54;8.90;;;2.67;;
4232;SDS011;2130;48.472;11.934;2024-02-16T02:14:25;8.90;;;2.97;;
4232;SDS011;2130;48.472;11.934;2024-02-16T02:16:54;9.60;;;3.00;;
4232;SDS011;2130;48.472;11.934;2024-02-16T02:19:26;9.33;;;2.70;;
4232;SDS011;2130;48.472;11.934;2024-02-16T02:21:55;8.07;;;2.70;;
4232;SDS011;2130;48.472;11.934;2024-02-16T02:24:26;10.67;;;3.47;;
4232;SDS011;2130;48.472;11.934;2024-02-16T02:26:57;8.93;;;2.50;;
4232;SDS011;2130;48.472;11.934;2024-02-16T02:29:26;8.00;;;2.53;;
4232;SDS011;2130;48.472;11.934;2024-02-16T02:31:55;8.53;;;2.57;;
4232;SDS011;2130;48.472;11.934;2024-02-16T02:34:24;8.60;;;2.80;;
4232;SDS011;2130;48.472;11.934;2024-02-16T02:36:53;8.60;;;2.30;;
4232;SDS011;2130;48.472;11.934;2024-02-16T02:39:23;9.13;;;2.77;;
4232;SDS011;2130;48.472;11.934;2024-02-16T02:41:54;10.47;;;2.50;;
4232;SDS011;2130;48.472;11.934;2024-02-16T02:44:25;8.83;;;3.00;;
4232;SDS011;2130;48.472;11.934;2024-02-16T02:46:55;9.10;;;2.33;;
4232;SDS011;2130;48.472;11.934;2024-02-16T02:49:24;8.93;;;2.70;;
4232;SDS011;2130;48.472;11.934;2024-02-16T02:51:54;8.30;;;2.40;;
4232;SDS011;2130;48.472;11.934;2024-02-16T02:54:25;12.97;;;3.00;;
4232;SDS011;2130;48.472;11.934;2024-02-16T02:56:56;11.10;;;2.93;;
4232;SDS011;2130;48.472;11.934;2024-02-16T02:59:26;11.67;;;2.90;;
4232;SDS011;2130;48.472;11.934;2024-02-16T03:01:55;11.40;;;2.77;;
4232;SDS011;2130;48.472;11.934;2024-02-16T03:04:25;9.33;;;3.07;;
4232;SDS011;2130;48.472;11.934;2024-02-16T03:06:55;10.23;;;3.40;;
4232;SDS011;2130;48.472;11.934;2024-02-16T03:09:26;9.90;;;3.40;;
4232;SDS011;2130;48.472;11.934;2024-02-16T03:11:57;9.13;;;3.10;;
4232;SDS011;2130;48.472;11.934;2024-02-16T03:14:27;9.40;;;3.13;;
4232;SDS011;2130;48.472;11.934;2024-02-16T03:16:56;10.90;;;3.63;;
4232;SDS011;2130;48.472;11.934;2024-02-16T03:19:25;9.77;;;2.80;;
4232;SDS011;2130;48.472;11.934;2024-02-16T03:21:56;12.97;;;3.70;;
4232;SDS011;2130;48.472;11.934;2024-02-16T03:24:26;8.60;;;2.77;;
4232;SDS011;2130;48.472;11.934;2024-02-16T03:26:56;9.90;;;2.97;;
4232;SDS011;2130;48.472;11.934;2024-02-16T03:29:26;10.87;;;3.40;;
4232;SDS011;2130;48.472;11.934;2024-02-16T03:31:56;8.63;;;2.93;;
4232;SDS011;2130;48.472;11.934;2024-02-16T03:34:25;9.03;;;2.67;;
4232;SDS011;2130;48.472;11.934;2024-02-16T03:36:54;7.67;;;2.60;;
4232;SDS011;2130;48.472;11.934;2024-02-16T03:39:23;10.20;;;2.90;;
4232;SDS011;2130;48.472;11.934;2024-02-16T03:41:52;11.93;;;2.77;;
4232;SDS011;2130;48.472;11.934;2024-02-16T03:44:25;10.07;;;3.17;;
4232;SDS011;2130;48.472;11.934;2024-02-16T03:46:55;19.30;;;3.00;;
4232;SDS011;2130;48.472;11.934;2024-02-16T03:49:24;12.30;;;3.70;;
4232;SDS011;2130;48.472;11.934;2024-02-16T03:51:55;11.07;;;3.40;;
4232;SDS011;2130;48.472;11.934;2024-02-16T03:54:25;9.70;;;2.97;;
4232;SDS011;2130;48.472;11.934;2024-02-16T03:56:55;11.60;;;3.93;;
4232;SDS011;2130;48.472;11.934;2024-02-16T03:59:26;11.70;;;3.00;;
4232;SDS011;2130;48.472;11.934;2024-02-16T04:01:55;11.87;;;3.80;;
4232;SDS011;2130;48.472;11.934;2024-02-16T04:04:26;8.13;;;2.60;;
4232;SDS011;2130;48.472;11.934;2024-02-16T04:06:55;10.73;;;3.50;;
4232;SDS011;2130;48.472;11.934;2024-02-16T04:09:24;14.63;;;3.47;;
4232;SDS011;2130;48.472;11.934;2024-02-16T04:11:55;9.03;;;2.80;;
4232;SDS011;2130;48.472;11.934;2024-02-16T04:14:25;8.47;;;3.00;;
4232;SDS011;2130;48.472;11.934;2024-02-16T04:16:56;9.40;;;3.33;;
4232;SDS011;2130;48.472;11.934;2024-02-16T04:19:26;8.87;;;3.10;;
4232;SDS011;2130;48.472;11.934;2024-02-16T04:21:55;12.40;;;3.93;;
4232;SDS011;2130;48.472;11.934;2024-02-16T04:24:26;11.80;;;3.10;;
4232;SDS011;2130;48.472;11.934;2024-02-16T04:26:56;8.67;;;2.57;;
4232;SDS011;2130;48.472;11.934;2024-02-16T04:29:27;9.70;;;2.90;;
4232;SDS011;2130;48.472;11.934;2024-02-16T04:31:56;8.80;;;3.00;;
4232;SDS011;2130;48.472;11.934;2024-02-16T04:34:26;11.50;;;3.20;;
4232;SDS011;2130;48.472;11.934;2024-02-16T04:36:56;10.97;;;3.10;;
4232;SDS011;2130;48.472;11.934;2024-02-16T04:39:30;9.70;;;2.67;;
4232;SDS011;2130;48.472;11.934;2024-02-16T04:42:01;9.50;;;2.93;;
4232;SDS011;2130;48.472;11.934;2024-02-16T04:44:32;8.77;;;3.07;;
4232;SDS011;2130;48.472;11.934;2024-02-16T04:47:06;8.90;;;2.80;;
4232;SDS011;2130;48.472;11.934;2024-02-16T04:49:37;11.63;;;3.10;;
4232;SDS011;2130;48.472;11.934;2024-02-16T04:52:07;8.13;;;2.90;;
4232;SDS011;2130;48.472;11.934;2024-02-16T04:54:38;12.83;;;3.40;;
4232;SDS011;2130;48.472;11.934;2024-02-16T04:57:08;11.43;;;3.10;;
4232;SDS011;2130;48.472;11.934;2024-02-16T04:59:38;11.53;;;3.17;;
4232;SDS011;2130;48.472;11.934;2024-02-16T05:02:07;11.17;;;3.77;;
4232;SDS011;2130;48.472;11.934;2024-02-16T05:04:37;10.80;;;3.70;;
4232;SDS011;2130;48.472;11.934;2024-02-16T05:07:07;10.47;;;3.63;;
4232;SDS011;2130;48.472;11.934;2024-02-16T05:09:37;12.63;;;4.47;;
4232;SDS011;2130;48.472;11.934;2024-02-16T05:12:08;15.27;;;5.30;;
4232;SDS011;2130;48.472;11.934;2024-02-16T05:14:38;20.50;;;5.47;;
4232;SDS011;2130;48.472;11.934;2024-02-16T05:17:09;12.57;;;4.63;;
4232;SDS011;2130;48.472;11.934;2024-02-16T05:19:40;10.57;;;3.60;;
4232;SDS011;2130;48.472;11.934;2024-02-16T05:22:11;13.20;;;4.33;;
4232;SDS011;2130;48.472;11.934;2024-02-16T05:24:41;14.17;;;3.73;;
4232;SDS011;2130;48.472;11.934;2024-02-16T05:27:10;9.77;;;3.50;;
4232;SDS011;2130;48.472;11.934;2024-02-16T05:29:41;11.20;;;3.30;;
4232;SDS011;2130;48.472;11.934;2024-02-16T05:32:10;10.90;;;3.30;;
4232;SDS011;2130;48.472;11.934;2024-02-16T05:34:39;14.63;;;4.00;;
4232;SDS011;2130;48.472;11.934;2024-02-16T05:37:10;8.90;;;2.97;;
4232;SDS011;2130;48.472;11.934;2024-02-16T05:39:40;10.70;;;4.30;;
4232;SDS011;2130;48.472;11.934;2024-02-16T05:42:25;10.67;;;2.80;;
4232;SDS011;2130;48.472;11.934;2024-02-16T05:44:56;11.17;;;3.10;;
4232;SDS011;2130;48.472;11.934;2024-02-16T05:47:27;9.97;;;3.13;;
4232;SDS011;2130;48.472;11.934;2024-02-16T05:49:59;9.43;;;3.40;;
4232;SDS011;2130;48.472;11.934;2024-02-16T05:52:29;9.20;;;3.23;;
4232;SDS011;2130;48.472;11.934;2024-02-16T05:54:58;12.30;;;3.40;;
4232;SDS011;2130;48.472;11.934;2024-02-16T05:57:27;10.37;;;3.17;;
4232;SDS011;2130;48.472;11.934;2024-02-16T05:59:58;14.00;;;4.67;;
4232;SDS011;2130;48.472;11.934;2024-02-16T06:02:30;13.60;;;2.83;;
4232;SDS011;2130;48.472;11.934;2024-02-16T06:05:00;11.70;;;3.80;;
4232;SDS011;2130;48.472;11.934;2024-02-16T06:07:32;15.23;;;3.67;;
4232;SDS011;2130;48.472;11.934;2024-02-16T06:10:02;11.50;;;3.87;;
4232;SDS011;2130;48.472;11.934;2024-02-16T06:12:36;13.67;;;3.50;;
4232;SDS011;2130;48.472;11.934;2024-02-16T06:15:08;10.53;;;3.63;;
4232;SDS011;2130;48.472;11.934;2024-02-16T06:17:37;10.20;;;2.97;;
4232;SDS011;2130;48.472;11.934;2024-02-16T06:20:08;11.73;;;4.13;;
4232;SDS011;2130;48.472;11.934;2024-02-16T06:22:39;11.77;;;4.53;;
4232;SDS011;2130;48.472;11.934;2024-02-16T06:25:08;11.67;;;4.13;;
4232;SDS011;2130;48.472;11.934;2024-02-16T06:27:39;10.77;;;2.83;;
4232;SDS011;2130;48.472;11.934;2024-02-16T06:30:11;10.30;;;3.67;;
4232;SDS011;2130;48.472;11.934;2024-02-16T06:32:42;11.40;;;4.07;;
4232;SDS011;2130;48.472;11.934;2024-02-16T06:35:12;10.33;;;2.87;;
4232;SDS011;2130;48.472;11.934;2024-02-16T06:37:41;11.57;;;3.30;;
4232;SDS011;2130;48.472;11.934;2024-02-16T06:40:11;9.97;;;3.40;;
4232;SDS011;2130;48.472;11.934;2024-02-16T06:42:40;12.27;;;4.23;;
4232;SDS011;2130;48.472;11.934;2024-02-16T06:45:11;17.67;;;4.70;;
4232;SDS011;2130;48.472;11.934;2024-02-16T06:47:42;10.03;;;3.33;;
4232;SDS011;2130;48.472;11.934;2024-02-16T06:50:12;12.87;;;4.10;;
4232;SDS011;2130;48.472;11.934;2024-02-16T06:52:42;10.03;;;3.73;;
4232;SDS011;2130;48.472;11.934;2024-02-16T06:55:12;12.00;;;3.93;;
4232;SDS011;2130;48.472;11.934;2024-02-16T06:57:41;9.97;;;3.87;;
4232;SDS011;2130;48.472;11.934;2024-02-16T07:00:13;11.97;;;3.80;;
4232;SDS011;2130;48.472;11.934;2024-02-16T07:02:43;11.63;;;4.23;;
4232;SDS011;2130;48.472;11.934;2024-02-16T07:05:15;11.90;;;4.13;;
4232;SDS011;2130;48.472;11.934;2024-02-16T07:07:46;12.37;;;4.27;;
4232;SDS011;2130;48.472;11.934;2024-02-16T07:10:16;9.50;;;3.53;;
4232;SDS011;2130;48.472;11.934;2024-02-16T07:12:46;10.77;;;3.80;;
4232;SDS011;2130;48.472;11.934;2024-02-16T07:15:18;10.73;;;3.53;;
4232;SDS011;2130;48.472;11.934;2024-02-16T07:17:47;14.03;;;4.00;;
4232;SDS011;2130;48.472;11.934;2024-02-16T07:20:19;9.57;;;3.50;;
4232;SDS011;2130;48.472;11.934;2024-02-16T07:22:48;13.80;;;3.93;;
4232;SDS011;2130;48.472;11.934;2024-02-16T07:25:18;9.00;;;3.10;;
4232;SDS011;2130;48.472;11.934;2024-02-16T07:27:48;11.40;;;3.53;;
4232;SDS011;2130;48.472;11.934;2024-02-16T07:30:19;11.10;;;3.83;;
4232;SDS011;2130;48.472;11.934;2024-02-16T07:33:00;12.60;;;4.10;;
4232;SDS011;2130;48.472;11.934;2024-02-16T07:35:29;11.47;;;3.63;;
4232;SDS011;2130;48.472;11.934;2024-02-16T07:37:59;11.20;;;3.67;;
4232;SDS011;2130;48.472;11.934;2024-02-16T07:40:29;11.63;;;3.53;;
4232;SDS011;2130;48.472;11.934;2024-02-16T07:42:59;9.97;;;3.30;;
4232;SDS011;2130;48.472;11.934;2024-02-16T07:45:33;9.97;;;3.70;;
4232;SDS011;2130;48.472;11.934;2024-02-16T07:48:04;17.53;;;4.60;;
4232;SDS011;2130;48.472;11.934;2024-02-16T07:50:36;10.47;;;3.53;;
4232;SDS011;2130;48.472;11.934;2024-02-16T07:53:05;8.93;;;3.70;;
4232;SDS011;2130;48.472;11.934;2024-02-16T07:55:34;11.07;;;4.40;;
4232;SDS011;2130;48.472;11.934;2024-02-16T07:58:04;16.27;;;4.57;;
4232;SDS011;2130;48.472;11.934;2024-02-16T08:00:34;10.87;;;4.30;;
4232;SDS011;2130;48.472;11.934;2024-02-16T08:03:04;11.83;;;3.60;;
4232;SDS011;2130;48.472;11.934;2024-02-16T08:05:34;14.07;;;4.00;;
4232;SDS011;2130;48.472;11.934;2024-02-16T08:08:04;9.80;;;3.37;;
4232;SDS011;2130;48.472;11.934;2024-02-16T08:10:33;11.73;;;3.53;;
4232;SDS011;2130;48.472;11.934;2024-02-16T08:13:03;13.73;;;4.27;;
4232;SDS011;2130;48.472;11.934;2024-02-16T08:15:35;9.77;;;4.03;;
4232;SDS011;2130;48.472;11.934;2024-02-16T08:18:06;10.03;;;4.17;;
4232;SDS011;2130;48.472;11.934;2024-02-16T08:20:38;11.43;;;4.07;;
4232;SDS011;2130;48.472;11.934;2024-02-16T08:23:08;9.13;;;3.50;;
4232;SDS011;2130;48.472;11.934;2024-02-16T08:25:37;10.60;;;3.73;;
4232;SDS011;2130;48.472;11.934;2024-02-16T08:28:06;10.50;;;4.57;;
4232;SDS011;2130;48.472;11.934;2024-02-16T08:30:38;11.17;;;4.13;;
4232;SDS011;2130;48.472;11.934;2024-02-16T08:33:09;8.20;;;2.90;;
4232;SDS011;2130;48.472;11.934;2024-02-16T08:35:38;10.70;;;3.60;;
4232;SDS011;2130;48.472;11.934;2024-02-16T08:38:06;9.20;;;3.30;;
4232;SDS011;2130;48.472;11.934;2024-02-16T08:40:39;11.03;;;3.53;;
4232;SDS011;2130;48.472;11.934;2024-02-16T08:43:08;8.90;;;3.03;;
4232;SDS011;2130;48.472;11.934;2024-02-16T08:45:39;8.47;;;3.03;;
4232;SDS011;2130;48.472;11.934;2024-02-16T08:48:09;10.20;;;3.47;;
4232;SDS011;2130;48.472;11.934;2024-02-16T08:50:39;6.47;;;2.10;;
4232;SDS011;2130;48.472;11.934;2024-02-16T08:53:09;9.20;;;2.30;;
4232;SDS011;2130;48.472;11.934;2024-02-16T08:55:38;6.80;;;2.23;;
4232;SDS011;2130;48.472;11.934;2024-02-16T08:58:08;8.27;;;2.83;;
4232;SDS011;2130;48.472;11.934;2024-02-16T09:00:40;8.03;;;2.30;;
4232;SDS011;2130;48.472;11.934;2024-02-16T09:03:10;10.30;;;2.60;;
4232;SDS011;2130;48.472;11.934;2024-02-16T09:05:39;9.57;;;2.77;;
4232;SDS011;2130;48.472;11.934;2024-02-16T09:08:09;8.60;;;2.60;;
4232;SDS011;2130;48.472;11.934;2024-02-16T09:13:33;7.33;;;2.37;;
4232;SDS011;2130;48.472;11.934;2024-02-16T12:52:26;5.37;;;2.07;;
4232;SDS011;2130;48.472;11.934;2024-02-16T12:54:56;5.83;;;2.00;;
4232;SDS011;2130;48.472;11.934;2024-02-16T12:57:26;5.13;;;1.77;;
4232;SDS011;2130;48.472;11.934;2024-02-16T12:59:56;4.93;;;1.63;;
4232;SDS011;2130;48.472;11.934;2024-02-16T13:02:25;5.60;;;2.13;;
4232;SDS011;2130;48.472;11.934;2024-02-16T13:04:55;5.83;;;2.23;;
4232;SDS011;2130;48.472;11.934;2024-02-16T13:07:23;5.53;;;2.00;;
4232;SDS011;2130;48.472;11.934;2024-02-16T13:09:53;5.10;;;1.57;;
4232;SDS011;2130;48.472;11.934;2024-02-16T13:12:21;7.33;;;2.50;;
4232;SDS011;2130;48.472;11.934;2024-02-16T13:14:51;5.60;;;2.00;;
4232;SDS011;2130;48.472;11.934;2024-02-16T13:17:19;6.43;;;1.90;;
4232;SDS011;2130;48.472;11.934;2024-02-16T13:19:47;4.70;;;1.60;;
4232;SDS011;2130;48.472;11.934;2024-02-16T13:22:15;7.30;;;1.90;;
4232;SDS011;2130;48.472;11.934;2024-02-16T13:24:43;5.23;;;1.60;;
4232;SDS011;2130;48.472;11.934;2024-02-16T13:27:12;5.43;;;1.73;;
4232;SDS011;2130;48.472;11.934;2024-02-16T13:29:40;5.27;;;1.67;;
4232;SDS011;2130;48.472;11.934;2024-02-16T13:32:08;5.83;;;1.70;;
4232;SDS011;2130;48.472;11.934;2024-02-16T13:34:36;6.70;;;1.73;;
4232;SDS011;2130;48.472;11.934;2024-02-16T13:37:04;8.60;;;2.17;;
4232;SDS011;2130;48.472;11.934;2024-02-16T13:39:32;4.80;;;1.73;;
4232;SDS011;2130;48.472;11.934;2024-02-16T13:42:00;5.20;;;1.70;;
4232;SDS011;2130;48.472;11.934;2024-02-16T13:44:30;5.13;;;1.57;;
4232;SDS011;2130;48.472;11.934;2024-02-16T13:46:58;5.30;;;1.63;;
4232;SDS011;2130;48.472;11.934;2024-02-16T13:49:26;4.60;;;1.43;;
4232;SDS011;2130;48.472;11.934;2024-02-16T13:51:54;6.10;;;1.53;;
4232;SDS011;2130;48.472;11.934;2024-02-16T13:54:25;5.60;;;1.70;;
4232;SDS011;2130;48.472;11.934;2024-02-16T13:56:53;6.00;;;1.83;;
4232;SDS011;2130;48.472;11.934;2024-02-16T13:59:21;4.40;;;1.37;;
4232;SDS011;2130;48.472;11.934;2024-02-16T14:01:51;4.60;;;1.17;;
4232;SDS011;2130;48.472;11.934;2024-02-16T14:04:19;5.03;;;1.60;;
4232;SDS011;2130;48.472;11.934;2024-02-16T14:06:49;4.57;;;1.40;;
4232;SDS011;2130;48.472;11.934;2024-02-16T14:09:17;4.60;;;1.37;;
4232;SDS011;2130;48.472;11.934;2024-02-16T14:11:53;4.50;;;1.20;;
4232;SDS011;2130;48.472;11.934;2024-02-16T14:14:22;4.80;;;1.30;;
4232;SDS011;2130;48.472;11.934;2024-02-16T14:17:04;5.10;;;1.67;;
4232;SDS011;2130;48.472;11.934;2024-02-16T14:19:32;5.77;;;1.60;;
4232;SDS011;2130;48.472;11.934;2024-02-16T14:22:04;4.90;;;1.50;;
4232;SDS011;2130;48.472;11.934;2024-02-16T14:24:33;5.37;;;1.67;;
4232;SDS011;2130;48.472;11.934;2024-02-16T14:27:02;4.43;;;1.40;;
4232;SDS011;2130;48.472;11.934;2024-02-16T14:29:30;7.30;;;1.57;;
4232;SDS011;2130;48.472;11.934;2024-02-16T14:31:58;5.20;;;1.70;;
4232;SDS011;2130;48.472;11.934;2024-02-16T14:34:27;4.13;;;1.13;;
4232;SDS011;2130;48.472;11.934;2024-02-16T14:36:56;5.80;;;1.30;;
4232;SDS011;2130;48.472;11.934;2024-02-16T14:39:24;4.43;;;1.40;;
4232;SDS011;2130;48.472;11.934;2024-02-16T14:41:52;3.93;;;1.20;;
4232;SDS011;2130;48.472;11.934;2024-02-16T14:44:20;5.00;;;1.60;;
4232;SDS011;2130;48.472;11.934;2024-02-16T14:46:48;4.30;;;1.20;;
4232;SDS011;2130;48.472;11.934;2024-02-16T14:49:16;4.63;;;1.40;;
4232;SDS011;2130;48.472;11.934;2024-02-16T14:51:49;5.77;;;1.60;;
4232;SDS011;2130;48.472;11.934;2024-02-16T14:54:19;4.13;;;1.20;;
4232;SDS011;2130;48.472;11.934;2024-02-16T14:56:47;4.80;;;1.30;;
4232;SDS011;2130;48.472;11.934;2024-02-16T14:59:20;4.10;;;1.10;;
4232;SDS011;2130;48.472;11.934;2024-02-16T15:01:49;4.40;;;1.30;;
4232;SDS011;2130;48.472;11.934;2024-02-16T15:04:20;4.03;;;1.10;;
4232;SDS011;2130;48.472;11.934;2024-02-16T15:06:49;5.00;;;1.53;;
4232;SDS011;2130;48.472;11.934;2024-02-16T15:09:18;4.70;;;1.37;;
4232;SDS011;2130;48.472;11.934;2024-02-16T15:11:48;4.07;;;1.30;;
4232;SDS011;2130;48.472;11.934;2024-02-16T15:14:18;4.30;;;1.40;;
4232;SDS011;2130;48.472;11.934;2024-02-16T15:16:46;4.43;;;1.10;;
4232;SDS011;2130;48.472;11.934;2024-02-16T15:19:14;4.20;;;1.27;;
4232;SDS011;2130;48.472;11.934;2024-02-16T15:21:43;4.90;;;1.40;;
4232;SDS011;2130;48.472;11.934;2024-02-16T15:24:12;5.40;;;1.47;;
4232;SDS011;2130;48.472;11.934;2024-02-16T15:26:40;6.07;;;1.40;;
4232;SDS011;2130;48.472;11.934;2024-02-16T15:29:09;4.30;;;1.10;;
4232;SDS011;2130;48.472;11.934;2024-02-16T15:31:37;5.17;;;1.50;;
4232;SDS011;2130;48.472;11.934;2024-02-16T15:34:05;6.17;;;1.50;;
4232;SDS011;2130;48.472;11.934;2024-02-16T15:36:33;3.97;;;1.20;;
4232;SDS011;2130;48.472;11.934;2024-02-16T15:39:02;4.13;;;1.20;;
4232;SDS011;2130;48.472;11.934;2024-02-16T15:41:32;4.00;;;1.23;;
4232;SDS011;2130;48.472;11.934;2024-02-16T15:44:00;4.40;;;1.27;;
4232;SDS011;2130;48.472;11.934;2024-02-16T15:46:29;4.27;;;1.30;;
4232;SDS011;2130;48.472;11.934;2024-02-16T15:48:57;4.60;;;1.23;;
4232;SDS011;2130;48.472;11.934;2024-02-16T15:54:34;4.17;;;1.30;;
4232;SDS011;2130;48.472;11.934;2024-02-16T15:57:04;5.00;;;1.70;;
4232;SDS011;2130;48.472;11.934;2024-02-16T16:12:09;4.53;;;1.30;;
4232;SDS011;2130;48.472;11.934;2024-02-16T16:14:37;3.93;;;1.20;;
4232;SDS011;2130;48.472;11.934;2024-02-16T16:17:05;4.20;;;1.07;;
4232;SDS011;2130;48.472;11.934;2024-02-16T16:19:33;5.03;;;1.77;;
4232;SDS011;2130;48.472;11.934;2024-02-16T16:22:02;6.93;;;2.40;;
4232;SDS011;2130;48.472;11.934;2024-02-16T16:24:32;12.00;;;2.00;;
4232;SDS011;2130;48.472;11.934;2024-02-16T16:58:43;4.43;;;1.30;;
4232;SDS011;2130;48.472;11.934;2024-02-16T17:01:13;4.73;;;1.50;;
4232;SDS011;2130;48.472;11.934;2024-02-16T17:03:45;4.63;;;1.33;;
4232;SDS011;2130;48.472;11.934;2024-02-16T17:06:14;4.63;;;1.20;;
4232;SDS011;2130;48.472;11.934;2024-02-16T17:08:46;4.20;;;1.40;;
4232;SDS011;2130;48.472;11.934;2024-02-16T17:18:16;5.27;;;1.70;;
4232;SDS011;2130;48.472;11.934;2024-02-16T17:24:40;4.83;;;1.53;;
4232;SDS011;2130;48.472;11.934;2024-02-16T17:27:44;4.87;;;1.50;;
4232;SDS011;2130;48.472;11.934;2024-02-16T17:31:22;4.77;;;1.47;;
4232;SDS011;2130;48.472;11.934;2024-02-16T17:34:31;5.43;;;1.87;;
4232;SDS011;2130;48.472;11.934;2024-02-16T17:37:40;6.20;;;1.83;;
4232;SDS011;2130;48.472;11.934;2024-02-16T17:40:13;5.70;;;2.30;;
4232;SDS011;2130;48.472;11.934;2024-02-16T17:42:45;7.60;;;2.97;;
4232;SDS011;2130;48.472;11.934;2024-02-16T17:45:17;7.20;;;2.37;;
4232;SDS011;2130;48.472;11.934;2024-02-16T17:48:29;8.10;;;2.50;;
4232;SDS011;2130;48.472;11.934;2024-02-16T18:19:11;6.00;;;1.97;;
4232;SDS011;2130;48.472;11.934;2024-02-16T18:21:40;12.60;;;2.10;;
4232;SDS011;2130;48.472;11.934;2024-02-16T18:24:09;5.40;;;1.90;;
4232;SDS011;2130;48.472;11.934;2024-02-16T18:26:38;6.80;;;2.10;;
4232;SDS011;2130;48.472;11.934;2024-02-16T18:29:07;9.07;;;2.10;;
4232;SDS011;2130;48.472;11.934;2024-02-16T18:31:36;7.13;;;2.40;;
4232;SDS011;2130;48.472;11.934;2024-02-16T18:34:06;9.37;;;2.60;;
4232;SDS011;2130;48.472;11.934;2024-02-16T18:36:39;6.23;;;2.20;;
4232;SDS011;2130;48.472;11.934;2024-02-16T18:39:08;6.10;;;2.37;;
4232;SDS011;2130;48.472;11.934;2024-02-16T18:41:39;5.60;;;2.13;;
4232;SDS011;2130;48.472;11.934;2024-02-16T18:44:07;6.70;;;2.50;;
4232;SDS011;2130;48.472;11.934;2024-02-16T18:46:37;6.00;;;2.30;;
4232;SDS011;2130;48.472;11.934;2024-02-16T18:49:05;6.73;;;2.00;;
4232;SDS011;2130;48.472;11.934;2024-02-16T18:51:36;6.40;;;2.30;;
4232;SDS011;2130;48.472;11.934;2024-02-16T18:54:05;5.53;;;2.13;;
4232;SDS011;2130;48.472;11.934;2024-02-16T18:56:36;6.73;;;2.03;;
4232;SDS011;2130;48.472;11.934;2024-02-16T18:59:05;5.47;;;1.90;;
4232;SDS011;2130;48.472;11.934;2024-02-16T19:01:39;6.77;;;2.70;;
4232;SDS011;2130;48.472;11.934;2024-02-16T19:04:08;8.27;;;2.67;;
4232;SDS011;2130;48.472;11.934;2024-02-16T19:06:38;6.90;;;2.70;;
4232;SDS011;2130;48.472;11.934;2024-02-16T19:09:06;7.20;;;2.90;;
4232;SDS011;2130;48.472;11.934;2024-02-16T19:11:36;5.90;;;2.60;;
4232;SDS011;2130;48.472;11.934;2024-02-16T19:14:04;7.50;;;2.60;;
4232;SDS011;2130;48.472;11.934;2024-02-16T19:16:33;8.20;;;2.67;;
4232;SDS011;2130;48.472;11.934;2024-02-16T19:19:02;7.17;;;2.63;;
4232;SDS011;2130;48.472;11.934;2024-02-16T19:21:31;6.60;;;2.37;;
4232;SDS011;2130;48.472;11.934;2024-02-16T19:24:00;5.93;;;2.37;;
4232;SDS011;2130;48.472;11.934;2024-02-16T19:26:30;7.00;;;2.60;;
4232;SDS011;2130;48.472;11.934;2024-02-16T19:28:59;6.47;;;2.73;;
4232;SDS011;2130;48.472;11.934;2024-02-16T19:31:27;7.47;;;3.10;;
4232;SDS011;2130;48.472;11.934;2024-02-16T19:33:58;6.80;;;2.60;;
4232;SDS011;2130;48.472;11.934;2024-02-16T19:36:27;8.70;;;2.70;;
4232;SDS011;2130;48.472;11.934;2024-02-16T19:38:56;8.83;;;3.13;;
4232;SDS011;2130;48.472;11.934;2024-02-16T19:41:26;9.47;;;3.40;;
4232;SDS011;2130;48.472;11.934;2024-02-16T19:43:54;7.00;;;2.87;;
4232;SDS011;2130;48.472;11.934;2024-02-16T19:46:23;9.40;;;3.37;;
4232;SDS011;2130;48.472;11.934;2024-02-16T19:48:51;6.20;;;2.60;;
4232;SDS011;2130;48.472;11.934;2024-02-16T19:51:21;6.70;;;2.40;;
4232;SDS011;2130;48.472;11.934;2024-02-16T19:53:50;10.80;;;2.87;;
4232;SDS011;2130;48.472;11.934;2024-02-16T19:56:20;6.20;;;2.20;;
4232;SDS011;2130;48.472;11.934;2024-02-16T19:58:50;8.90;;;2.90;;
4232;SDS011;2130;48.472;11.934;2024-02-16T20:01:19;8.37;;;2.73;;
4232;SDS011;2130;48.472;11.934;2024-02-16T20:03:48;6.97;;;2.83;;
4232;SDS011;2130;48.472;11.934;2024-02-16T20:06:17;7.20;;;2.80;;
4232;SDS011;2130;48.472;11.934;2024-02-16T20:08:46;7.03;;;2.40;;
4232;SDS011;2130;48.472;11.934;2024-02-16T20:11:14;5.70;;;2.20;;
4232;SDS011;2130;48.472;11.934;2024-02-16T20:13:44;5.83;;;2.30;;
4232;SDS011;2130;48.472;11.934;2024-02-16T20:16:18;8.17;;;3.00;;
4232;SDS011;2130;48.472;11.934;2024-02-16T20:18:47;6.27;;;2.20;;
4232;SDS011;2130;48.472;11.934;2024-02-16T20:21:15;5.60;;;2.10;;
4232;SDS011;2130;48.472;11.934;2024-02-16T20:23:45;6.20;;;2.53;;